SKU011 SCBA-EGYP
Flight info
| Callsign | SKU011 |
|---|---|
| Flight time | N/A |
| Altitude | 36000 |
| Route | ROGEL3A ROGEL DCT DONBO DCT LOMIN |
| Aircraft | A320/M-SDE3FGHIRWY/LB1 |
Departure
| Time | N/A |
|---|---|
| Airport | Balmaceda Airport (SCBA) |
Arrival
| Time | 2026-04-25 22:07 |
|---|---|
| Airport | Mount Pleasant Airport / RAF Mount Pleasant (EGYP) |
| Time | Latitude | Longitude | Altitude | Speed | Heading |
|---|---|---|---|---|---|
| 2026-04-25 21:39 | -50.62107 | -60.47378 | 35736 ft | 477 kts | 135° |
| 2026-04-25 21:39 | -50.64326 | -60.43483 | 35736 ft | 478 kts | 135° |
| 2026-04-25 21:40 | -50.68751 | -60.35680 | 35735 ft | 478 kts | 135° |
| 2026-04-25 21:40 | -50.70966 | -60.31766 | 35632 ft | 479 kts | 135° |
| 2026-04-25 21:40 | -50.73180 | -60.27845 | 35387 ft | 478 kts | 135° |
| 2026-04-25 21:41 | -50.75399 | -60.23919 | 35144 ft | 478 kts | 135° |
| 2026-04-25 21:41 | -50.77614 | -60.19998 | 34908 ft | 478 kts | 135° |
| 2026-04-25 21:41 | -50.79832 | -60.16060 | 34671 ft | 479 kts | 135° |
| 2026-04-25 21:41 | -50.82046 | -60.12119 | 34444 ft | 479 kts | 135° |
| 2026-04-25 21:42 | -50.84258 | -60.08176 | 34211 ft | 479 kts | 135° |
| 2026-04-25 21:42 | -50.86471 | -60.04221 | 33973 ft | 479 kts | 135° |
| 2026-04-25 21:42 | -50.88679 | -60.00266 | 33748 ft | 480 kts | 134° |
| 2026-04-25 21:42 | -50.90886 | -59.96307 | 33494 ft | 480 kts | 134° |
| 2026-04-25 21:43 | -50.93101 | -59.92335 | 33216 ft | 480 kts | 134° |
| 2026-04-25 21:43 | -50.95313 | -59.88365 | 32934 ft | 480 kts | 135° |
| 2026-04-25 21:43 | -50.97526 | -59.84389 | 32347 ft | 482 kts | 135° |
| 2026-04-25 21:43 | -50.99738 | -59.80414 | 31104 ft | 490 kts | 135° |
| 2026-04-25 21:44 | -51.02008 | -59.76321 | 30000 ft | 495 kts | 135° |
| 2026-04-25 21:44 | -51.04285 | -59.72207 | 28850 ft | 496 kts | 135° |
| 2026-04-25 21:44 | -51.08872 | -59.63908 | 26382 ft | 501 kts | 135° |
| 2026-04-25 21:45 | -51.11157 | -59.59760 | 25396 ft | 497 kts | 135° |
| 2026-04-25 21:45 | -51.12666 | -59.57014 | 24709 ft | 496 kts | 135° |
| 2026-04-25 21:45 | -51.15685 | -59.51502 | 23495 ft | 491 kts | 135° |
| 2026-04-25 21:45 | -51.17919 | -59.47415 | 22548 ft | 486 kts | 135° |
| 2026-04-25 21:46 | -51.20120 | -59.43385 | 21762 ft | 477 kts | 135° |
| 2026-04-25 21:46 | -51.22292 | -59.39410 | 20808 ft | 474 kts | 134° |
| 2026-04-25 21:46 | -51.24432 | -59.35487 | 20134 ft | 465 kts | 134° |
| 2026-04-25 21:46 | -51.26551 | -59.31603 | 19378 ft | 460 kts | 134° |
| 2026-04-25 21:47 | -51.28639 | -59.27770 | 18624 ft | 455 kts | 134° |
| 2026-04-25 21:47 | -51.30666 | -59.24029 | 17933 ft | 449 kts | 134° |
| 2026-04-25 21:47 | -51.32691 | -59.20284 | 17188 ft | 439 kts | 134° |
| 2026-04-25 21:47 | -51.34641 | -59.16660 | 16652 ft | 422 kts | 134° |
| 2026-04-25 21:48 | -51.36506 | -59.13190 | 16416 ft | 399 kts | 134° |
| 2026-04-25 21:48 | -51.38271 | -59.09915 | 16231 ft | 379 kts | 134° |
| 2026-04-25 21:48 | -51.39966 | -59.06774 | 15825 ft | 367 kts | 134° |
| 2026-04-25 21:48 | -51.41609 | -59.03734 | 15467 ft | 354 kts | 134° |
| 2026-04-25 21:49 | -51.43165 | -59.00852 | 15320 ft | 330 kts | 134° |
| 2026-04-25 21:49 | -51.44620 | -58.98142 | 15176 ft | 310 kts | 134° |
| 2026-04-25 21:49 | -51.46001 | -58.95562 | 14784 ft | 301 kts | 134° |
| 2026-04-25 21:49 | -51.47358 | -58.93030 | 14322 ft | 296 kts | 134° |
| 2026-04-25 21:50 | -51.48690 | -58.90548 | 13858 ft | 291 kts | 134° |
| 2026-04-25 21:50 | -51.49945 | -58.88210 | 13415 ft | 286 kts | 134° |
| 2026-04-25 21:50 | -51.51270 | -58.85737 | 12875 ft | 282 kts | 134° |
| 2026-04-25 21:50 | -51.52117 | -58.84157 | 12507 ft | 281 kts | 134° |
| 2026-04-25 21:51 | -51.53810 | -58.80993 | 11777 ft | 277 kts | 134° |
| 2026-04-25 21:51 | -51.55062 | -58.78656 | 11230 ft | 275 kts | 134° |
| 2026-04-25 21:51 | -51.56299 | -58.76345 | 10702 ft | 272 kts | 134° |
| 2026-04-25 21:51 | -51.57515 | -58.74064 | 10384 ft | 262 kts | 134° |
| 2026-04-25 21:52 | -51.58678 | -58.71870 | 10022 ft | 254 kts | 134° |
| 2026-04-25 21:52 | -51.59809 | -58.69734 | 9634 ft | 248 kts | 134° |
| 2026-04-25 21:52 | -51.60919 | -58.67635 | 9220 ft | 243 kts | 134° |
| 2026-04-25 21:52 | -51.61999 | -58.65594 | 8802 ft | 237 kts | 134° |
| 2026-04-25 21:53 | -51.63091 | -58.63537 | 8394 ft | 254 kts | 134° |
| 2026-04-25 21:53 | -51.64263 | -58.61338 | 7987 ft | 262 kts | 134° |
| 2026-04-25 21:53 | -51.65435 | -58.59131 | 7589 ft | 262 kts | 134° |
| 2026-04-25 21:53 | -51.66612 | -58.56902 | 7200 ft | 262 kts | 134° |
| 2026-04-25 21:54 | -51.67791 | -58.54663 | 6792 ft | 262 kts | 134° |
| 2026-04-25 21:54 | -51.68969 | -58.52429 | 6401 ft | 261 kts | 134° |
| 2026-04-25 21:54 | -51.70144 | -58.50201 | 6021 ft | 260 kts | 134° |
| 2026-04-25 21:54 | -51.71311 | -58.47982 | 5617 ft | 259 kts | 134° |
| 2026-04-25 21:55 | -51.72473 | -58.45768 | 5214 ft | 258 kts | 134° |
| 2026-04-25 21:55 | -51.73637 | -58.43558 | 4814 ft | 258 kts | 134° |
| 2026-04-25 21:55 | -51.74407 | -58.42095 | 4553 ft | 258 kts | 134° |
| 2026-04-25 21:55 | -51.75920 | -58.39207 | 4506 ft | 248 kts | 134° |
| 2026-04-25 21:56 | -51.77034 | -58.37078 | 4462 ft | 249 kts | 134° |
| 2026-04-25 21:56 | -51.77773 | -58.35664 | 4420 ft | 249 kts | 134° |
| 2026-04-25 21:56 | -51.79261 | -58.32819 | 4554 ft | 247 kts | 134° |
| 2026-04-25 21:56 | -51.80375 | -58.30691 | 4681 ft | 249 kts | 134° |
| 2026-04-25 21:57 | -51.81458 | -58.28615 | 4698 ft | 234 kts | 134° |
| 2026-04-25 21:57 | -51.82489 | -58.26637 | 4704 ft | 230 kts | 134° |
| 2026-04-25 21:57 | -51.83517 | -58.24666 | 4707 ft | 229 kts | 134° |
| 2026-04-25 21:57 | -51.84544 | -58.22700 | 4713 ft | 229 kts | 134° |
| 2026-04-25 21:58 | -51.85569 | -58.20736 | 4716 ft | 228 kts | 135° |
| 2026-04-25 21:58 | -51.86597 | -58.18780 | 4715 ft | 228 kts | 137° |
| 2026-04-25 21:58 | -51.87865 | -58.17352 | 4432 ft | 220 kts | 168° |
| 2026-04-25 21:58 | -51.89357 | -58.17001 | 4038 ft | 217 kts | 179° |
| 2026-04-25 21:59 | -51.90871 | -58.16744 | 3637 ft | 220 kts | 178° |
| 2026-04-25 21:59 | -51.92334 | -58.15942 | 3239 ft | 229 kts | 150° |
| 2026-04-25 21:59 | -51.93399 | -58.13983 | 2852 ft | 240 kts | 117° |
| 2026-04-25 22:00 | -51.92988 | -58.08789 | 2073 ft | 245 kts | 45° |
| 2026-04-25 22:00 | -51.91629 | -58.07355 | 2014 ft | 225 kts | 11° |
| 2026-04-25 22:00 | -51.90146 | -58.07260 | 2017 ft | 208 kts | 340° |
| 2026-04-25 22:00 | -51.88901 | -58.08231 | 2013 ft | 189 kts | 314° |
| 2026-04-25 22:01 | -51.88124 | -58.09827 | 2017 ft | 176 kts | 290° |
| 2026-04-25 22:01 | -51.87767 | -58.11682 | 2017 ft | 172 kts | 281° |
| 2026-04-25 22:01 | -51.87458 | -58.13550 | 2017 ft | 170 kts | 281° |
| 2026-04-25 22:01 | -51.87361 | -58.14136 | 2024 ft | 162 kts | 281° |
| 2026-04-25 22:02 | -51.86927 | -58.16733 | 2028 ft | 129 kts | 280° |
| 2026-04-25 22:02 | -51.86701 | -58.18097 | 2018 ft | 124 kts | 280° |
| 2026-04-25 22:02 | -51.86479 | -58.19435 | 2020 ft | 122 kts | 280° |
| 2026-04-25 22:02 | -51.86259 | -58.20761 | 2015 ft | 122 kts | 279° |
| 2026-04-25 22:03 | -51.86040 | -58.22080 | 2033 ft | 121 kts | 279° |
| 2026-04-25 22:03 | -51.85820 | -58.23403 | 2030 ft | 122 kts | 279° |
| 2026-04-25 22:03 | -51.85599 | -58.24727 | 2034 ft | 122 kts | 280° |
| 2026-04-25 22:03 | -51.85379 | -58.26046 | 2037 ft | 121 kts | 280° |
| 2026-04-25 22:04 | -51.85162 | -58.27349 | 2036 ft | 121 kts | 281° |
| 2026-04-25 22:04 | -51.84942 | -58.28665 | 2028 ft | 121 kts | 280° |
| 2026-04-25 22:04 | -51.84721 | -58.29983 | 1967 ft | 122 kts | 280° |
| 2026-04-25 22:04 | -51.84500 | -58.31305 | 1845 ft | 122 kts | 280° |
| 2026-04-25 22:05 | -51.84279 | -58.32627 | 1706 ft | 122 kts | 280° |
| 2026-04-25 22:05 | -51.84058 | -58.33947 | 1545 ft | 121 kts | 281° |
| 2026-04-25 22:05 | -51.83910 | -58.34829 | 1436 ft | 121 kts | 281° |
| 2026-04-25 22:05 | -51.83619 | -58.36563 | 1211 ft | 120 kts | 281° |
| 2026-04-25 22:06 | -51.83399 | -58.37868 | 1028 ft | 120 kts | 282° |
| 2026-04-25 22:06 | -51.83254 | -58.38731 | 906 ft | 120 kts | 283° |
| 2026-04-25 22:06 | -51.83032 | -58.40051 | 733 ft | 120 kts | 283° |
| 2026-04-25 22:06 | -51.82812 | -58.41358 | 567 ft | 119 kts | 284° |
| 2026-04-25 22:07 | -51.82595 | -58.42654 | 409 ft | 120 kts | 284° |
| 2026-04-25 22:07 | -51.82452 | -58.43522 | 314 ft | 120 kts | 284° |
| 2026-04-25 22:07 | -51.82184 | -58.45110 | 264 ft | 76 kts | 286° |
| 2026-04-25 22:07 | -51.82130 | -58.45438 | 264 ft | 1 kts | 283° |
| 2026-04-25 22:08 | -51.82125 | -58.45472 | 263 ft | 6 kts | 284° |
| 2026-04-25 22:08 | -51.82091 | -58.45632 | 262 ft | 20 kts | 286° |
| 2026-04-25 22:08 | -51.82052 | -58.45861 | 259 ft | 22 kts | 285° |
| 2026-04-25 22:08 | -51.82011 | -58.46111 | 257 ft | 20 kts | 284° |
| 2026-04-25 22:09 | -51.82007 | -58.46308 | 257 ft | 9 kts | 243° |
| 2026-04-25 22:09 | -51.82032 | -58.46384 | 259 ft | 8 kts | 242° |
| 2026-04-25 22:09 | -51.82067 | -58.46470 | 258 ft | 11 kts | 233° |
| 2026-04-25 22:09 | -51.82123 | -58.46575 | 259 ft | 13 kts | 209° |
| 2026-04-25 22:10 | -51.82210 | -58.46631 | 260 ft | 15 kts | 203° |
| 2026-04-25 22:10 | -51.82229 | -58.46685 | 260 ft | 2 kts | 280° |
| 2026-04-25 22:10 | -51.82223 | -58.46721 | 260 ft | 4 kts | 286° |
| 2026-04-25 22:10 | -51.82212 | -58.46783 | 260 ft | 7 kts | 285° |
| 2026-04-25 22:11 | -51.82203 | -58.46836 | 260 ft | 0 kts | 285° |